Time;durP1;ratioP1;P1;durP2;ratioP2;P2;SDS_P1;SDS_P2;PMS_P1;PMS_P2;Temp;Humidity;BMP_temperature;BMP_pressure;BME280_temperature;BME280_humidity;BME280_pressure;Samples;Min_cycle;Max_cycle;Signal;HPM_P1;HPM_P2
2022/05/05 06:19:43;;;;;;;15.18;7.88;;;;;;;;;;12864234;23;20013;-83
2022/05/05 06:25:39;;;;;;;7.07;4.18;;;;;;;;;;12680637;23;20049;-85
2022/05/05 06:30:49;;;;;;;4.53;3.05;;;;;;;;;;12664374;23;20022;-85
2022/05/05 06:36:26;;;;;;;5.30;2.70;;;;;;;;;;12616227;23;20021;-83
2022/05/05 06:46:51;;;;;;;4.78;2.72;;;;;;;;;;12642809;23;20014;-84
2022/05/05 06:51:59;;;;;;;7.75;3.90;;;;;;;;;;12611737;23;20518;-86
2022/05/05 06:57:07;;;;;;;4.28;2.08;;;;;;;;;;12637137;23;20003;-84
2022/05/05 07:02:17;;;;;;;4.57;2.53;;;;;;;;;;12807207;23;20005;-83
2022/05/05 07:07:22;;;;;;;13.48;7.40;;;;;;;;;;12850386;23;20008;-82
2022/05/05 07:12:52;;;;;;;8.50;4.40;;;;;;;;;;12777976;23;20009;-82
2022/05/05 07:24:08;;;;;;;5.07;2.63;;;;;;;;;;12773184;23;20017;-81
2022/05/05 07:35:22;;;;;;;6.53;4.60;;;;;;;;;;12530986;23;20035;-82
2022/05/05 07:41:11;;;;;;;8.00;3.78;;;;;;;;;;12515934;23;20015;-82
2022/05/05 07:46:18;;;;;;;6.40;4.25;;;;;;;;;;12689719;23;20066;-80
2022/05/05 07:51:24;;;;;;;6.95;4.40;;;;;;;;;;12751390;23;20018;-83
2022/05/05 07:56:32;;;;;;;10.35;6.07;;;;;;;;;;12749531;23;20010;-83
2022/05/05 08:02:30;;;;;;;7.65;6.15;;;;;;;;;;12735287;23;20013;-83
2022/05/05 08:07:45;;;;;;;9.38;6.32;;;;;;;;;;12714399;23;20091;-81
2022/05/05 08:13:14;;;;;;;10.55;7.10;;;;;;;;;;12812902;23;20032;-83
2022/05/05 08:18:15;;;;;;;12.52;7.80;;;;;;;;;;12873392;23;20028;-81
2022/05/05 08:23:21;;;;;;;12.15;8.07;;;;;;;;;;12883125;22;20425;-82
2022/05/05 08:28:36;;;;;;;14.90;8.10;;;;;;;;;;12877424;23;20012;-82
2022/05/05 08:33:40;;;;;;;14.73;8.43;;;;;;;;;;12886091;22;19997;-83
2022/05/05 08:39:02;;;;;;;13.82;10.10;;;;;;;;;;12885558;22;20019;-83
2022/05/05 08:49:56;;;;;;;10.45;6.38;;;;;;;;;;12913699;23;20000;-85
2022/05/05 09:00:47;;;;;;;11.00;7.32;;;;;;;;;;12889254;23;20017;-83
2022/05/05 09:17:35;;;;;;;9.02;5.50;;;;;;;;;;12702838;23;20018;-81
2022/05/05 09:28:30;;;;;;;12.55;8.82;;;;;;;;;;12685146;23;20010;-81
2022/05/05 09:33:52;;;;;;;19.75;12.40;;;;;;;;;;12696790;23;20049;-85
2022/05/05 09:39:26;;;;;;;13.18;9.23;;;;;;;;;;12853112;23;20088;-85
2022/05/05 09:44:32;;;;;;;14.35;8.77;;;;;;;;;;12860142;23;20389;-84
2022/05/05 09:50:02;;;;;;;13.55;9.38;;;;;;;;;;12891471;22;20021;-79
2022/05/05 10:05:35;;;;;;;10.65;7.22;;;;;;;;;;12885714;23;20012;-87
2022/05/05 10:10:38;;;;;;;8.98;6.25;;;;;;;;;;12852804;23;20004;-82
2022/05/05 10:15:47;;;;;;;8.23;6.13;;;;;;;;;;12897500;22;20030;-84
2022/05/05 10:20:52;;;;;;;6.30;4.07;;;;;;;;;;12850014;23;20005;-85
2022/05/05 10:25:55;;;;;;;6.68;5.43;;;;;;;;;;12863562;23;20380;-85
2022/05/05 10:30:59;;;;;;;7.13;5.22;;;;;;;;;;12885604;22;20024;-85
2022/05/05 10:36:21;;;;;;;9.10;6.07;;;;;;;;;;12851590;23;20071;-86
2022/05/05 10:41:33;;;;;;;5.72;4.05;;;;;;;;;;12858746;23;20001;-85
2022/05/05 10:46:56;;;;;;;26.17;21.95;;;;;;;;;;12854422;23;20329;-85
2022/05/05 10:52:15;;;;;;;6.30;4.53;;;;;;;;;;12888176;23;19989;-84
2022/05/05 10:57:29;;;;;;;7.22;5.38;;;;;;;;;;12856160;23;20011;-84
2022/05/05 11:02:30;;;;;;;6.53;4.60;;;;;;;;;;12859996;23;20004;-83
2022/05/05 11:07:54;;;;;;;8.68;5.95;;;;;;;;;;12866966;23;20005;-81
2022/05/05 11:13:11;;;;;;;7.07;4.30;;;;;;;;;;12871775;23;20008;-81
2022/05/05 11:23:46;;;;;;;6.97;4.28;;;;;;;;;;12893319;23;20013;-80
2022/05/05 11:28:50;;;;;;;6.85;4.80;;;;;;;;;;12884636;23;20015;-83
2022/05/05 11:33:58;;;;;;;8.00;4.35;;;;;;;;;;12877963;22;19993;-82
2022/05/05 11:38:59;;;;;;;4.10;3.08;;;;;;;;;;12864858;23;20019;-84
2022/05/05 11:44:17;;;;;;;6.80;4.70;;;;;;;;;;12857659;23;20063;-80
2022/05/05 11:49:18;;;;;;;7.10;3.42;;;;;;;;;;12884962;23;20009;-81
2022/05/05 11:54:27;;;;;;;7.53;4.65;;;;;;;;;;12855742;23;20019;-81
2022/05/05 12:04:57;;;;;;;8.43;5.05;;;;;;;;;;12885231;23;20013;-85
2022/05/05 12:09:59;;;;;;;10.75;5.40;;;;;;;;;;12904839;22;20004;-84
2022/05/05 12:15:02;;;;;;;8.30;5.40;;;;;;;;;;12896587;23;20058;-85
2022/05/05 12:20:06;;;;;;;6.28;3.97;;;;;;;;;;12885988;23;20000;-85
2022/05/05 12:25:17;;;;;;;7.90;5.30;;;;;;;;;;12893792;23;19997;-84
2022/05/05 12:30:30;;;;;;;11.80;8.45;;;;;;;;;;12861156;23;20016;-84
2022/05/05 12:35:37;;;;;;;7.88;5.45;;;;;;;;;;12855955;23;20013;-85
2022/05/05 12:40:49;;;;;;;9.63;5.70;;;;;;;;;;12865211;23;19997;-85
2022/05/05 12:45:50;;;;;;;19.90;17.65;;;;;;;;;;12888184;23;20001;-81
2022/05/05 12:50:58;;;;;;;8.32;6.65;;;;;;;;;;12895777;23;20001;-80
2022/05/05 13:01:26;;;;;;;5.97;4.70;;;;;;;;;;12883202;23;20091;-84
2022/05/05 13:06:30;;;;;;;9.63;7.28;;;;;;;;;;12882160;23;20005;-84
2022/05/05 13:11:33;;;;;;;9.30;4.90;;;;;;;;;;12855229;23;20008;-84
2022/05/05 13:16:39;;;;;;;4.35;3.67;;;;;;;;;;12882696;23;19997;-84
2022/05/05 13:21:45;;;;;;;5.55;4.05;;;;;;;;;;12855928;23;20368;-83
2022/05/05 13:26:49;;;;;;;5.57;4.05;;;;;;;;;;12867584;23;20008;-86
2022/05/05 13:31:53;;;;;;;6.15;4.50;;;;;;;;;;12864947;23;20052;-87
2022/05/05 13:36:54;;;;;;;5.93;4.07;;;;;;;;;;12864828;23;20019;-83
2022/05/05 13:41:58;;;;;;;6.65;4.00;;;;;;;;;;12864714;23;20005;-84
2022/05/05 13:47:12;;;;;;;6.68;4.00;;;;;;;;;;12892880;23;20012;-85
2022/05/05 13:52:31;;;;;;;6.03;3.92;;;;;;;;;;12876391;23;20039;-84
2022/05/05 13:57:34;;;;;;;5.82;4.30;;;;;;;;;;12856487;23;20062;-85
2022/05/05 14:02:40;;;;;;;6.00;4.50;;;;;;;;;;12893882;22;20004;-84
2022/05/05 14:13:02;;;;;;;5.10;3.17;;;;;;;;;;12882202;23;20013;-85
2022/05/05 14:18:05;;;;;;;4.53;3.42;;;;;;;;;;12882981;23;20219;-85
2022/05/05 14:23:09;;;;;;;6.65;4.75;;;;;;;;;;12892947;23;20004;-85
2022/05/05 14:28:15;;;;;;;5.57;2.92;;;;;;;;;;12867358;23;20004;-85
2022/05/05 14:33:19;;;;;;;5.47;3.42;;;;;;;;;;12870200;23;20005;-85
2022/05/05 14:38:25;;;;;;;7.47;4.45;;;;;;;;;;12898162;22;20015;-80
2022/05/05 14:43:35;;;;;;;5.47;3.72;;;;;;;;;;12884259;22;20009;-84
2022/05/05 14:48:36;;;;;;;8.18;3.80;;;;;;;;;;12882101;23;20028;-84
2022/05/05 14:53:38;;;;;;;5.68;3.95;;;;;;;;;;12860114;23;20031;-80
2022/05/05 14:58:39;;;;;;;8.23;5.00;;;;;;;;;;12863463;23;20468;-85
2022/05/05 15:03:40;;;;;;;6.20;4.03;;;;;;;;;;12866689;23;20321;-81
2022/05/05 15:08:41;;;;;;;3.95;2.70;;;;;;;;;;12860337;23;20005;-85
2022/05/05 15:13:42;;;;;;;6.18;4.38;;;;;;;;;;12887475;23;20365;-80
2022/05/05 15:18:43;;;;;;;3.42;2.70;;;;;;;;;;12861675;23;20040;-82
2022/05/05 15:23:44;;;;;;;5.57;4.18;;;;;;;;;;12861290;23;20095;-84
2022/05/05 15:28:58;;;;;;;4.55;3.10;;;;;;;;;;12865209;23;20001;-81
2022/05/05 15:33:59;;;;;;;6.40;4.47;;;;;;;;;;12856805;23;20036;-85
2022/05/05 15:39:22;;;;;;;3.83;2.60;;;;;;;;;;12857588;23;20004;-84
2022/05/05 15:44:32;;;;;;;5.72;4.82;;;;;;;;;;12857290;23;20052;-85
2022/05/05 15:49:36;;;;;;;;;;;;;;;;;;12896433;23;20016;-82
2022/05/05 15:54:41;;;;;;;6.38;5.03;;;;;;;;;;12864942;23;19907;-84
2022/05/05 15:59:44;;;;;;;7.93;4.10;;;;;;;;;;12860165;23;20019;-83
2022/05/05 16:04:50;;;;;;;4.13;3.00;;;;;;;;;;12859183;23;20024;-84
2022/05/05 16:09:51;;;;;;;5.20;3.95;;;;;;;;;;12855791;23;20009;-84
2022/05/05 16:14:55;;;;;;;5.70;3.03;;;;;;;;;;12886874;23;20055;-82
2022/05/05 16:19:56;;;;;;;4.20;3.15;;;;;;;;;;12898098;23;20076;-82
2022/05/05 16:30:21;;;;;;;3.33;2.35;;;;;;;;;;12881753;23;20016;-86
2022/05/05 16:35:22;;;;;;;8.52;5.40;;;;;;;;;;12851113;23;20063;-87
2022/05/05 16:40:26;;;;;;;5.88;3.28;;;;;;;;;;12851930;23;20009;-84
2022/05/05 16:45:27;;;;;;;4.53;3.55;;;;;;;;;;12871111;23;20085;-87
2022/05/05 16:50:29;;;;;;;2.75;2.08;;;;;;;;;;12861786;23;20009;-85
2022/05/05 16:55:30;;;;;;;3.17;2.33;;;;;;;;;;12856388;23;20056;-85
2022/05/05 17:00:31;;;;;;;7.03;4.43;;;;;;;;;;12848230;23;20008;-85
2022/05/05 17:05:32;;;;;;;5.15;2.83;;;;;;;;;;12847355;23;20019;-85
2022/05/05 17:10:33;;;;;;;5.55;3.45;;;;;;;;;;12846522;23;20004;-85
2022/05/05 17:15:34;;;;;;;5.07;3.80;;;;;;;;;;12854991;23;20016;-86
2022/05/05 17:20:36;;;;;;;5.32;3.20;;;;;;;;;;12882262;23;20019;-86
2022/05/05 17:25:37;;;;;;;6.38;2.90;;;;;;;;;;12873285;23;20000;-84
2022/05/05 17:30:38;;;;;;;4.10;2.58;;;;;;;;;;12854485;23;20024;-84
2022/05/05 17:35:39;;;;;;;5.32;3.17;;;;;;;;;;12851290;23;20012;-85
2022/05/05 17:40:40;;;;;;;3.63;2.10;;;;;;;;;;12875249;23;20005;-87
2022/05/05 17:51:03;;;;;;;4.23;2.37;;;;;;;;;;12895948;22;20527;-85
2022/05/05 17:56:05;;;;;;;4.40;3.13;;;;;;;;;;12892701;22;19985;-83
2022/05/05 18:01:08;;;;;;;2.72;1.98;;;;;;;;;;12893744;22;19996;-85
2022/05/05 18:06:11;;;;;;;4.55;2.92;;;;;;;;;;12893863;22;20012;-84
2022/05/05 18:11:12;;;;;;;4.28;2.60;;;;;;;;;;12894026;22;20005;-84
2022/05/05 18:16:13;;;;;;;4.68;2.75;;;;;;;;;;12893328;22;19988;-88
2022/05/05 18:21:14;;;;;;;4.13;2.40;;;;;;;;;;12893882;22;19996;-88
2022/05/05 18:26:15;;;;;;;2.90;2.10;;;;;;;;;;12893541;22;19997;-89
2022/05/05 18:31:16;;;;;;;2.72;2.22;;;;;;;;;;12891972;22;20032;-86
2022/05/05 18:36:17;;;;;;;3.25;2.13;;;;;;;;;;12855764;23;20013;-85
2022/05/05 18:41:18;;;;;;;3.20;2.40;;;;;;;;;;12845680;23;20001;-85
2022/05/05 18:46:19;;;;;;;2.80;2.17;;;;;;;;;;12853524;23;20005;-86
2022/05/05 18:51:20;;;;;;;3.13;2.10;;;;;;;;;;12853483;23;20008;-86
2022/05/05 18:56:21;;;;;;;2.67;1.65;;;;;;;;;;12866972;22;19997;-85
2022/05/05 19:01:22;;;;;;;5.53;2.53;;;;;;;;;;12916666;22;19993;-89
2022/05/05 19:06:23;;;;;;;3.95;2.22;;;;;;;;;;12893193;22;20012;-88
2022/05/05 19:11:25;;;;;;;2.05;1.85;;;;;;;;;;12897021;22;20068;-83
2022/05/05 19:16:26;;;;;;;4.97;2.17;;;;;;;;;;12896688;22;20004;-86
2022/05/05 19:27:02;;;;;;;4.35;2.25;;;;;;;;;;12752606;23;20074;-86
